Time;durP1;ratioP1;P1;durP2;ratioP2;P2;SDS_P1;SDS_P2;PMS_P1;PMS_P2;Temp;Humidity;BMP_temperature;BMP_pressure;BME280_temperature;BME280_humidity;BME280_pressure;Samples;Min_cycle;Max_cycle;Signal;HPM_P1;HPM_P2
2022/11/26 00:01:18;;;;;;;19.35;10.68;;;;;;;7.35;93.44;98963.16;5003901;28;20099;-82
2022/11/26 00:03:44;;;;;;;19.70;10.38;;;;;;;7.38;93.56;98975.91;5001409;28;20397;-82
2022/11/26 00:06:35;;;;;;;20.13;9.90;;;;;;;7.45;93.67;98964.69;5004114;28;20068;-82
2022/11/26 00:09:04;;;;;;;18.15;9.80;;;;;;;7.50;93.55;98975.47;5002769;28;20035;-82
2022/11/26 00:11:30;;;;;;;19.35;9.32;;;;;;;7.59;93.55;98971.06;5005192;28;20038;-82
2022/11/26 00:13:56;;;;;;;17.42;9.07;;;;;;;7.64;92.80;98968.00;5003291;28;20053;-82
2022/11/26 00:16:21;;;;;;;17.42;11.05;;;;;;;7.62;91.90;98975.19;5000758;28;20521;-82
2022/11/26 00:18:47;;;;;;;19.25;11.02;;;;;;;7.67;91.56;98981.53;5003969;28;20044;-82
2022/11/26 00:21:24;;;;;;;16.73;10.38;;;;;;;7.71;91.40;98984.66;5003125;28;20099;-82
2022/11/26 00:23:51;;;;;;;17.38;9.80;;;;;;;7.69;90.98;98982.22;5003476;28;20030;-82
2022/11/26 00:26:23;;;;;;;16.65;9.57;;;;;;;7.76;91.12;98977.16;5002171;28;20042;-82
2022/11/26 00:28:59;;;;;;;15.52;9.80;;;;;;;7.77;91.14;98984.81;5005206;28;20137;-82
2022/11/26 00:31:26;;;;;;;15.63;9.20;;;;;;;7.74;90.70;98990.38;5005087;28;20046;-82
2022/11/26 00:33:52;;;;;;;15.32;8.30;;;;;;;7.70;90.84;98994.28;5005884;28;20040;-83
2022/11/26 00:36:28;;;;;;;15.57;8.07;;;;;;;7.63;91.28;98988.06;5003139;28;20121;-82
2022/11/26 00:39:11;;;;;;;12.10;8.20;;;;;;;7.63;91.72;98997.69;5003052;28;20050;-82
2022/11/26 00:41:38;;;;;;;16.77;8.73;;;;;;;7.69;92.13;98999.66;5001531;28;20493;-82
2022/11/26 00:44:20;;;;;;;13.18;8.05;;;;;;;7.74;92.25;99006.06;5001894;28;20041;-82
2022/11/26 00:46:47;;;;;;;16.13;8.30;;;;;;;7.82;91.86;99012.28;4999572;28;20040;-82
2022/11/26 00:49:13;;;;;;;13.07;8.50;;;;;;;7.85;91.48;99006.72;5002906;28;20037;-82
2022/11/26 00:51:39;;;;;;;11.63;8.20;;;;;;;7.90;91.38;99009.66;5001536;28;20034;-82
2022/11/26 00:54:07;;;;;;;13.90;7.70;;;;;;;7.92;91.03;99012.94;5003639;28;20452;-82
2022/11/26 00:56:33;;;;;;;15.30;8.25;;;;;;;7.95;90.82;99017.84;5006604;28;20034;-82
2022/11/26 00:58:58;;;;;;;12.40;7.78;;;;;;;7.97;90.50;99026.31;5003495;28;20406;-82
2022/11/26 01:01:27;;;;;;;14.20;7.93;;;;;;;7.94;90.39;99017.03;5005141;28;20111;-82
2022/11/26 01:03:54;;;;;;;15.32;8.80;;;;;;;7.90;89.98;99027.94;5003473;28;20053;-82
2022/11/26 01:06:25;;;;;;;13.57;7.85;;;;;;;7.87;90.21;99025.66;5001975;28;20382;-82
2022/11/26 01:08:50;;;;;;;;;;;;;;;7.89;90.58;99032.34;5003461;28;20042;-82
2022/11/26 01:11:19;;;;;;;13.48;8.80;;;;;;;7.90;90.24;99034.00;5015813;28;19920;-82
2022/11/26 01:13:48;;;;;;;13.52;8.93;;;;;;;7.89;90.41;99034.16;5003816;28;20494;-82
2022/11/26 01:16:27;;;;;;;15.32;8.38;;;;;;;7.93;90.20;99046.75;5000047;28;20112;-82
2022/11/26 01:18:55;;;;;;;16.95;9.13;;;;;;;7.84;89.89;99052.91;5004643;28;20037;-82
2022/11/26 01:21:23;;;;;;;16.63;9.63;;;;;;;7.78;90.69;99032.66;5002063;28;20478;-82
2022/11/26 01:23:49;;;;;;;16.15;8.70;;;;;;;7.88;91.07;99050.81;5003415;28;20041;-82
2022/11/26 01:26:23;;;;;;;17.15;9.35;;;;;;;7.90;90.67;99056.69;5000055;28;20108;-82
2022/11/26 01:28:48;;;;;;;16.63;8.95;;;;;;;7.93;90.58;99059.00;5001723;28;20099;-82
2022/11/26 01:31:27;;;;;;;17.17;8.88;;;;;;;7.91;90.54;99051.28;5001972;28;20062;-82
2022/11/26 01:33:53;;;;;;;16.52;9.68;;;;;;;7.97;90.37;99053.25;5002216;28;20509;-82
2022/11/26 01:36:34;;;;;;;15.73;9.38;;;;;;;7.97;90.07;99068.13;5002217;28;20042;-82
2022/11/26 01:39:16;;;;;;;17.05;9.20;;;;;;;7.90;89.84;99067.13;4999605;28;20038;-81
2022/11/26 01:42:36;;;;;;;15.88;8.80;;;;;;;7.87;89.79;99067.47;5002473;28;20608;-82
2022/11/26 01:45:01;;;;;;;13.25;9.52;;;;;;;7.85;90.62;99077.22;4999571;28;20034;-82
2022/11/26 01:47:29;;;;;;;16.95;9.35;;;;;;;7.89;90.55;99075.94;5005267;28;20034;-81
2022/11/26 01:50:33;;;;;;;18.02;9.60;;;;;;;7.94;90.67;99084.13;5015400;28;20030;-81
2022/11/26 01:53:10;;;;;;;13.93;9.23;;;;;;;7.97;90.46;99075.97;5019738;28;20033;-81
2022/11/26 01:56:00;;;;;;;14.20;8.60;;;;;;;7.96;90.18;99076.94;5007519;28;20042;-82
2022/11/26 01:58:36;;;;;;;15.02;9.00;;;;;;;7.99;89.92;99074.84;5004418;28;20657;-81
2022/11/26 02:01:02;;;;;;;14.63;9.02;;;;;;;7.99;89.80;99093.13;5003901;28;20030;-82
2022/11/26 02:03:37;;;;;;;16.30;9.25;;;;;;;7.98;89.46;99096.72;5005619;28;20362;-81
2022/11/26 02:06:10;;;;;;;15.70;9.30;;;;;;;7.96;89.53;99087.38;5005314;28;20034;-82
2022/11/26 02:08:36;;;;;;;19.10;9.68;;;;;;;7.94;89.68;99091.97;5004071;28;20477;-82
2022/11/26 02:11:18;;;;;;;15.05;9.70;;;;;;;7.94;89.12;99100.63;5004359;28;20084;-82
2022/11/26 02:13:51;;;;;;;16.38;9.30;;;;;;;7.94;89.21;99094.56;5004517;28;20057;-82
2022/11/26 02:17:05;;;;;;;16.33;9.55;;;;;;;7.94;89.20;99099.81;5004060;28;20749;-81
2022/11/26 02:19:52;;;;;;;17.65;9.68;;;;;;;7.92;89.11;99096.53;5000216;28;20044;-81
2022/11/26 02:22:48;;;;;;;14.55;9.48;;;;;;;7.91;88.84;99106.16;4998908;28;20037;-82
2022/11/26 02:26:17;;;;;;;14.05;9.02;;;;;;;7.90;89.34;99108.91;5004885;28;20037;-82
2022/11/26 02:29:22;;;;;;;15.32;9.10;;;;;;;7.83;89.20;99107.91;4997677;28;20061;-82
2022/11/26 02:31:57;;;;;;;14.43;8.50;;;;;;;7.89;89.36;99118.56;5007107;28;20069;-81
2022/11/26 02:34:31;;;;;;;15.82;8.85;;;;;;;7.90;89.33;99125.41;5005752;28;20042;-82
2022/11/26 02:37:24;;;;;;;13.40;8.88;;;;;;;7.79;89.48;99131.72;5005892;28;20030;-81
2022/11/26 02:39:50;;;;;;;16.20;9.35;;;;;;;7.77;89.91;99131.06;5003249;28;20048;-81
2022/11/26 02:42:33;;;;;;;14.23;8.27;;;;;;;7.82;90.24;99132.41;5004537;28;20105;-82
2022/11/26 02:45:07;;;;;;;14.45;8.93;;;;;;;7.76;89.18;99133.84;5004996;28;20034;-82
2022/11/26 02:47:37;;;;;;;15.70;8.50;;;;;;;7.70;89.39;99124.84;5006919;28;20038;-82
2022/11/26 02:50:11;;;;;;;17.83;8.98;;;;;;;7.59;89.73;99130.31;5004238;28;20568;-82
2022/11/26 02:52:41;;;;;;;15.73;8.27;;;;;;;7.58;90.21;99122.66;5002841;28;20533;-81
2022/11/26 02:55:11;;;;;;;14.10;8.00;;;;;;;7.55;90.72;99131.59;5007334;28;20042;-82
2022/11/26 02:57:49;;;;;;;14.55;8.02;;;;;;;7.58;90.70;99128.69;5003644;28;20516;-82
2022/11/26 03:00:16;;;;;;;12.57;7.80;;;;;;;7.60;90.55;99134.56;5016745;28;20053;-82
2022/11/26 03:03:08;;;;;;;17.00;8.40;;;;;;;7.65;90.59;99147.97;5002426;28;20033;-82
2022/11/26 03:05:38;;;;;;;14.05;7.00;;;;;;;7.71;90.63;99142.13;5003755;28;20044;-82
2022/11/26 03:08:06;;;;;;;17.20;8.00;;;;;;;7.67;90.00;99140.00;5003882;28;20038;-82
2022/11/26 03:10:32;;;;;;;12.18;6.88;;;;;;;7.61;90.10;99145.84;5004003;28;20045;-82
2022/11/26 03:12:58;;;;;;;13.48;7.40;;;;;;;7.62;90.51;99144.88;5004785;28;20034;-81
2022/11/26 03:15:25;;;;;;;12.20;7.28;;;;;;;7.58;90.50;99138.31;5003067;28;20022;-81
2022/11/26 03:17:50;;;;;;;15.18;7.90;;;;;;;7.52;90.53;99134.53;5003788;28;20045;-81
2022/11/26 03:20:17;;;;;;;10.95;6.95;;;;;;;7.48;90.50;99141.03;5001794;28;20517;-82
2022/11/26 03:22:43;;;;;;;12.30;6.60;;;;;;;7.46;90.82;99145.59;4991475;28;20041;-82
2022/11/26 03:25:09;;;;;;;12.93;6.50;;;;;;;7.35;91.29;99141.44;5004672;28;20493;-82
2022/11/26 03:27:35;;;;;;;14.05;7.18;;;;;;;7.35;91.94;99145.84;5005203;28;20038;-81
2022/11/26 03:30:01;;;;;;;14.23;6.30;;;;;;;7.34;91.80;99155.47;5003996;28;20120;-81
2022/11/26 03:32:26;;;;;;;13.45;6.65;;;;;;;7.27;92.00;99153.63;5006173;28;20498;-82
2022/11/26 03:34:52;;;;;;;12.82;6.78;;;;;;;7.28;92.11;99155.25;5003325;28;20030;-82
2022/11/26 03:37:17;;;;;;;16.08;6.30;;;;;;;7.29;91.99;99154.28;5002555;28;20116;-81
2022/11/26 03:39:43;;;;;;;10.48;6.07;;;;;;;7.19;91.67;99147.34;5005174;28;20037;-82
2022/11/26 03:42:08;;;;;;;15.00;7.05;;;;;;;7.15;92.03;99145.22;5005566;28;20117;-82
2022/11/26 03:44:34;;;;;;;15.65;7.18;;;;;;;7.14;92.69;99165.28;5003370;28;20022;-81
2022/11/26 03:47:00;;;;;;;10.85;6.10;;;;;;;7.13;92.51;99166.22;5003324;28;21396;-81
2022/11/26 03:49:26;;;;;;;18.05;8.07;;;;;;;7.07;92.64;99164.22;5004517;28;20061;-82
2022/11/26 03:51:51;;;;;;;12.23;6.72;;;;;;;7.06;93.23;99178.25;5003877;28;20034;-81
2022/11/26 03:54:19;;;;;;;14.73;6.95;;;;;;;7.05;93.56;99176.59;5003482;28;20125;-82
2022/11/26 03:56:45;;;;;;;16.23;7.25;;;;;;;6.98;93.42;99175.56;5006493;28;20113;-82
2022/11/26 03:59:10;;;;;;;13.98;6.53;;;;;;;7.00;94.02;99184.06;5002245;28;20108;-82
2022/11/26 04:01:36;;;;;;;15.75;7.22;;;;;;;6.87;93.96;99184.44;5001677;28;20828;-81
2022/11/26 04:04:01;;;;;;;16.58;7.05;;;;;;;6.93;94.32;99188.25;5006705;28;20414;-81
2022/11/26 04:06:28;;;;;;;14.68;6.65;;;;;;;6.90;94.10;99185.94;5002658;28;20061;-82
2022/11/26 04:08:53;;;;;;;18.40;7.68;;;;;;;6.82;94.58;99191.06;5007319;28;20076;-82
2022/11/26 04:11:19;;;;;;;14.13;6.68;;;;;;;6.77;95.30;99190.69;5004801;28;20041;-82
2022/11/26 04:13:44;;;;;;;12.07;6.97;;;;;;;6.72;95.56;99183.34;5001633;28;20042;-81
2022/11/26 04:16:10;;;;;;;13.80;7.50;;;;;;;6.64;95.95;99189.28;5001801;28;20041;-81
2022/11/26 04:18:35;;;;;;;14.05;7.50;;;;;;;6.62;96.13;99188.59;5000720;28;20497;-82
2022/11/26 04:21:01;;;;;;;12.77;7.53;;;;;;;6.68;96.27;99190.63;5004798;28;20065;-82
2022/11/26 04:23:26;;;;;;;18.90;6.85;;;;;;;6.76;95.85;99196.88;5004013;28;20041;-82
2022/11/26 04:25:52;;;;;;;12.70;6.85;;;;;;;6.80;95.63;99200.84;5001824;28;20049;-82
2022/11/26 04:28:17;;;;;;;10.52;6.60;;;;;;;6.87;95.51;99204.50;5003267;28;20033;-82
2022/11/26 04:30:43;;;;;;;14.13;5.85;;;;;;;6.87;95.29;99209.69;5003022;28;20121;-82
2022/11/26 04:33:09;;;;;;;12.50;6.25;;;;;;;6.86;94.91;99210.69;5002270;28;20509;-82
2022/11/26 04:35:34;;;;;;;14.45;6.47;;;;;;;6.87;95.17;99205.31;5003701;28;20038;-82
2022/11/26 04:38:00;;;;;;;11.98;7.50;;;;;;;6.88;94.90;99221.78;5006357;28;20167;-81
2022/11/26 04:40:25;;;;;;;11.35;6.30;;;;;;;6.94;94.82;99221.19;5004862;28;20107;-82
2022/11/26 04:42:51;;;;;;;10.73;6.25;;;;;;;7.01;94.97;99222.22;5007172;28;20045;-81
2022/11/26 04:45:16;;;;;;;14.27;6.90;;;;;;;6.95;94.78;99220.19;5000307;28;20034;-82
2022/11/26 04:47:42;;;;;;;17.95;7.65;;;;;;;6.95;94.58;99221.03;5000930;28;20414;-82
2022/11/26 04:50:09;;;;;;;16.63;7.60;;;;;;;6.94;94.74;99227.22;5001689;28;20097;-82
2022/11/26 04:52:34;;;;;;;14.10;7.47;;;;;;;7.05;94.57;99230.56;5000619;28;20441;-81
2022/11/26 04:54:59;;;;;;;12.70;6.55;;;;;;;7.05;94.10;99230.56;5003355;28;20092;-81
2022/11/26 04:57:25;;;;;;;17.50;6.70;;;;;;;7.05;94.36;99231.38;4997449;28;20072;-82
2022/11/26 04:59:50;;;;;;;14.65;7.07;;;;;;;7.05;94.27;99235.78;5003327;28;20041;-82
2022/11/26 05:02:16;;;;;;;16.38;7.05;;;;;;;7.03;94.51;99230.72;5004835;28;20044;-82
2022/11/26 05:04:41;;;;;;;17.80;7.47;;;;;;;7.04;94.59;99240.19;5002202;28;20386;-82
2022/11/26 05:07:07;;;;;;;13.68;6.43;;;;;;;7.00;94.60;99245.84;5017677;28;20129;-81
2022/11/26 05:09:32;;;;;;;14.00;7.18;;;;;;;6.90;94.81;99240.72;5004106;28;20092;-81
2022/11/26 05:11:58;;;;;;;16.52;7.40;;;;;;;6.89;95.18;99249.47;5002748;28;20041;-81
2022/11/26 05:14:23;;;;;;;14.73;6.70;;;;;;;6.93;94.90;99262.09;5003526;28;20070;-82
2022/11/26 05:16:49;;;;;;;14.68;6.50;;;;;;;6.79;95.70;99264.41;5000859;28;20030;-81
2022/11/26 05:19:15;;;;;;;10.68;6.70;;;;;;;6.80;95.69;99256.41;5002188;28;20049;-82
2022/11/26 05:21:41;;;;;;;13.68;6.43;;;;;;;6.86;95.57;99261.03;5001266;28;20042;-81
2022/11/26 05:24:06;;;;;;;13.07;6.75;;;;;;;6.86;95.30;99257.63;4999809;28;20169;-82
2022/11/26 05:26:32;;;;;;;22.08;7.38;;;;;;;6.85;95.45;99266.41;5003907;28;20041;-82
2022/11/26 05:28:57;;;;;;;15.50;6.63;;;;;;;6.88;95.42;99274.75;5006647;28;20117;-81
2022/11/26 05:31:23;;;;;;;16.00;6.78;;;;;;;6.87;95.52;99273.09;5006368;28;20042;-81
2022/11/26 05:33:48;;;;;;;15.60;6.38;;;;;;;6.88;95.36;99273.94;5009010;28;20040;-82
2022/11/26 05:36:14;;;;;;;10.57;6.05;;;;;;;6.92;95.05;99275.28;5006820;28;20061;-82
2022/11/26 05:38:39;;;;;;;16.00;6.68;;;;;;;6.96;94.97;99284.47;5007474;28;20381;-82
2022/11/26 05:41:05;;;;;;;11.57;6.57;;;;;;;6.95;94.47;99290.63;5004352;28;20033;-82
2022/11/26 05:43:30;;;;;;;17.70;6.40;;;;;;;6.84;94.51;99267.38;5006215;28;20153;-82
2022/11/26 05:45:55;;;;;;;15.30;6.85;;;;;;;6.94;94.33;99286.38;5007097;28;20033;-81
2022/11/26 05:48:21;;;;;;;16.42;6.00;;;;;;;6.93;94.63;99282.94;5008110;28;20108;-81
2022/11/26 05:50:47;;;;;;;13.23;6.50;;;;;;;7.01;94.17;99279.59;5005004;28;20378;-82
2022/11/26 05:53:12;;;;;;;12.48;6.28;;;;;;;6.99;93.95;99289.38;5008040;28;20045;-81
2022/11/26 05:55:38;;;;;;;11.88;5.68;;;;;;;7.03;93.88;99295.13;5006238;28;20034;-81
2022/11/26 05:58:03;;;;;;;13.48;6.45;;;;;;;7.01;93.45;99290.03;5008469;28;20034;-82
2022/11/26 06:00:29;;;;;;;14.15;5.75;;;;;;;7.05;93.82;99291.38;5005385;28;20051;-81
2022/11/26 06:02:54;;;;;;;16.63;6.30;;;;;;;7.16;93.67;99296.41;5005102;28;20092;-81
2022/11/26 06:05:20;;;;;;;14.02;6.10;;;;;;;7.26;93.66;99293.72;5005294;28;20053;-82
2022/11/26 06:07:46;;;;;;;15.00;6.40;;;;;;;7.33;93.16;99293.94;4991633;28;20409;-81
2022/11/26 06:10:12;;;;;;;13.27;5.72;;;;;;;7.40;92.82;99295.81;5006945;28;20030;-82
2022/11/26 06:12:38;;;;;;;14.20;6.13;;;;;;;7.21;91.59;99288.94;5004941;28;20485;-81
2022/11/26 06:15:04;;;;;;;16.85;6.35;;;;;;;7.18;92.04;99302.28;5006965;28;20061;-82
2022/11/26 06:17:29;;;;;;;15.88;6.47;;;;;;;7.21;92.47;99312.44;5006894;28;20507;-82
2022/11/26 06:19:55;;;;;;;9.90;6.00;;;;;;;7.28;92.18;99302.22;5004859;28;20157;-81
2022/11/26 06:22:20;;;;;;;15.95;6.32;;;;;;;7.33;92.18;99293.94;5004235;28;20042;-82
2022/11/26 06:24:46;;;;;;;15.27;6.25;;;;;;;7.39;91.72;99303.78;5004738;28;20551;-82
2022/11/26 06:27:11;;;;;;;10.38;6.00;;;;;;;7.24;91.51;99306.91;5003870;28;20030;-82
2022/11/26 06:29:37;;;;;;;13.75;6.35;;;;;;;7.29;92.29;99314.28;5004994;28;20108;-82
2022/11/26 06:32:03;;;;;;;13.20;6.15;;;;;;;7.30;91.40;99315.09;5004182;28;20061;-81
2022/11/26 06:34:28;;;;;;;12.98;5.90;;;;;;;7.37;91.27;99310.94;5004557;28;20042;-81
2022/11/26 06:36:53;;;;;;;16.20;5.97;;;;;;;7.29;91.00;99319.50;5006124;28;20026;-81
2022/11/26 06:39:19;;;;;;;14.80;6.07;;;;;;;7.28;91.24;99322.28;5006883;28;20045;-82
2022/11/26 06:41:44;;;;;;;14.40;6.18;;;;;;;7.33;91.32;99320.03;5004662;28;20061;-82
2022/11/26 06:44:10;;;;;;;9.95;5.95;;;;;;;7.28;91.09;99327.50;5002705;28;20553;-82
2022/11/26 06:46:36;;;;;;;9.10;5.47;;;;;;;7.33;90.99;99335.72;5004582;28;20432;-83
2022/11/26 06:49:04;;;;;;;13.43;6.35;;;;;;;7.33;90.54;99339.13;5004708;28;20038;-82
2022/11/26 06:51:30;;;;;;;16.73;6.50;;;;;;;7.35;90.77;99344.19;5004526;28;20054;-81
2022/11/26 06:53:56;;;;;;;14.65;6.28;;;;;;;7.36;91.08;99340.63;5005254;28;20030;-81
2022/11/26 06:56:22;;;;;;;14.93;5.85;;;;;;;7.35;91.20;99338.97;4999764;28;20026;-81
2022/11/26 06:58:50;;;;;;;15.15;6.10;;;;;;;7.42;90.90;99347.84;5004055;28;20037;-81
2022/11/26 07:01:23;;;;;;;12.10;5.57;;;;;;;7.47;90.42;99356.06;5004477;28;20461;-81
2022/11/26 07:03:49;;;;;;;14.00;5.78;;;;;;;7.54;90.28;99357.09;5004480;28;20032;-82
2022/11/26 07:06:22;;;;;;;14.45;6.00;;;;;;;7.56;89.92;99362.16;5004075;28;20084;-81
2022/11/26 07:08:50;;;;;;;12.57;6.38;;;;;;;7.56;90.09;99360.41;5002506;28;20049;-81
2022/11/26 07:11:16;;;;;;;12.18;6.30;;;;;;;7.60;89.70;99366.94;5006478;28;20026;-81
2022/11/26 07:13:42;;;;;;;9.35;5.45;;;;;;;7.45;89.54;99363.22;5001716;28;20045;-82
2022/11/26 07:16:09;;;;;;;13.98;5.55;;;;;;;7.49;90.05;99359.31;5003219;28;20050;-82
2022/11/26 07:18:35;;;;;;;9.98;5.97;;;;;;;7.54;90.29;99353.66;5004609;28;20034;-82
2022/11/26 07:21:10;;;;;;;9.63;5.60;;;;;;;7.59;90.13;99356.66;5000175;28;20176;-81
2022/11/26 07:23:37;;;;;;;9.18;5.72;;;;;;;7.53;88.95;99352.84;5004231;28;20478;-82
2022/11/26 07:26:04;;;;;;;9.43;5.60;;;;;;;7.50;89.10;99358.38;5004703;28;20065;-81
2022/11/26 07:28:30;;;;;;;10.70;5.30;;;;;;;7.30;89.31;99362.09;5002286;28;20042;-81
2022/11/26 07:31:18;;;;;;;10.10;5.97;;;;;;;7.16;90.47;99374.66;5003388;28;20046;-82
2022/11/26 07:33:45;;;;;;;12.20;5.32;;;;;;;7.10;90.99;99377.88;5001950;28;20053;-82
2022/11/26 07:36:18;;;;;;;12.02;6.00;;;;;;;7.12;90.56;99372.50;5005366;28;20072;-82
2022/11/26 07:38:44;;;;;;;13.20;5.55;;;;;;;7.14;90.88;99374.00;4994297;28;20031;-82
2022/11/26 07:41:13;;;;;;;11.57;6.15;;;;;;;7.19;91.51;99387.41;5017787;28;20034;-82
2022/11/26 07:43:41;;;;;;;11.95;5.63;;;;;;;7.13;91.11;99372.34;5020096;28;20049;-82
2022/11/26 07:46:11;;;;;;;11.40;6.05;;;;;;;7.18;90.89;99396.22;5015344;28;20037;-82
2022/11/26 07:48:39;;;;;;;10.00;5.88;;;;;;;7.27;91.81;99393.72;5016344;28;20038;-82
2022/11/26 07:51:06;;;;;;;13.23;6.20;;;;;;;7.32;90.88;99402.75;5018214;28;20438;-82
2022/11/26 07:53:35;;;;;;;11.95;5.38;;;;;;;7.46;91.39;99393.56;5017850;28;20087;-82
2022/11/26 07:56:04;;;;;;;9.85;6.00;;;;;;;7.54;90.78;99405.88;5016244;28;20046;-82
2022/11/26 07:58:31;;;;;;;19.08;6.97;;;;;;;7.60;89.28;99410.50;5016971;28;20048;-82
2022/11/26 08:00:56;;;;;;;11.85;5.72;;;;;;;7.65;90.71;99410.88;5015719;28;20041;-82
2022/11/26 08:03:21;;;;;;;10.10;5.32;;;;;;;7.78;90.84;99417.38;5017605;28;20041;-82
2022/11/26 08:05:47;;;;;;;13.60;6.03;;;;;;;7.90;89.53;99419.78;5015865;28;20120;-82
2022/11/26 08:08:12;;;;;;;14.57;6.65;;;;;;;7.82;87.75;99424.94;5015096;28;20030;-82
2022/11/26 08:10:38;;;;;;;10.23;7.00;;;;;;;7.95;89.31;99417.53;5015163;28;20048;-82
2022/11/26 08:13:04;;;;;;;13.27;6.20;;;;;;;7.89;88.24;99420.75;5016769;28;20092;-82
2022/11/26 08:15:31;;;;;;;15.68;6.43;;;;;;;7.87;87.86;99417.47;5014377;28;20108;-81
2022/11/26 08:17:57;;;;;;;15.32;6.45;;;;;;;7.91;88.43;99421.41;4999964;28;20486;-82
2022/11/26 08:20:24;;;;;;;12.25;6.40;;;;;;;7.94;88.44;99431.56;5001620;28;20467;-82
2022/11/26 08:22:50;;;;;;;13.07;6.38;;;;;;;7.96;88.25;99442.69;5017841;28;20039;-81
2022/11/26 08:25:16;;;;;;;11.60;5.88;;;;;;;7.90;88.10;99440.66;5005846;28;20026;-81
2022/11/26 08:27:42;;;;;;;10.05;5.63;;;;;;;7.81;86.61;99444.19;5003510;28;20041;-81
2022/11/26 08:30:09;;;;;;;12.27;6.05;;;;;;;7.73;87.28;99448.34;5000459;28;20560;-81
2022/11/26 08:32:35;;;;;;;10.75;5.90;;;;;;;7.71;87.57;99450.28;5002785;28;20422;-81
2022/11/26 08:35:01;;;;;;;14.35;6.63;;;;;;;7.79;89.08;99457.38;5003089;28;20026;-82
2022/11/26 08:37:28;;;;;;;15.35;6.00;;;;;;;7.83;87.85;99450.06;5003060;28;20108;-81
2022/11/26 08:39:53;;;;;;;12.32;5.97;;;;;;;7.83;87.28;99452.69;5004512;28;20083;-82
2022/11/26 08:42:19;;;;;;;12.05;6.10;;;;;;;7.91;88.26;99465.81;5005336;28;20603;-82
2022/11/26 08:44:45;;;;;;;9.88;6.28;;;;;;;7.94;86.69;99460.31;5000484;28;20037;-81
2022/11/26 08:47:11;;;;;;;12.65;6.05;;;;;;;7.98;86.35;99472.09;4999616;28;20042;-82
2022/11/26 08:49:36;;;;;;;10.60;6.38;;;;;;;7.91;85.39;99465.81;4999602;28;20066;-81
2022/11/26 08:52:02;;;;;;;10.75;6.22;;;;;;;7.89;86.02;99467.75;5000192;28;20143;-82
2022/11/26 08:54:28;;;;;;;11.65;6.07;;;;;;;7.94;86.76;99476.81;4999900;28;20096;-82
2022/11/26 08:56:54;;;;;;;12.18;7.03;;;;;;;7.89;86.11;99483.44;5000818;28;20368;-81
2022/11/26 08:59:23;;;;;;;11.77;6.88;;;;;;;7.74;86.72;99478.72;4995663;28;20033;-81
2022/11/26 09:01:48;;;;;;;10.75;7.00;;;;;;;7.63;87.05;99489.38;4999404;28;20045;-82
2022/11/26 09:04:15;;;;;;;12.93;6.68;;;;;;;7.65;87.41;99495.28;5003030;28;20037;-81
2022/11/26 09:06:41;;;;;;;14.45;7.05;;;;;;;7.66;88.11;99496.91;5002692;28;20034;-81
2022/11/26 09:09:11;;;;;;;10.23;6.38;;;;;;;7.72;87.92;99501.53;5002319;28;20669;-82
2022/11/26 09:11:59;;;;;;;13.68;7.70;;;;;;;7.59;88.46;99502.88;5013462;28;20046;-82
2022/11/26 09:14:29;;;;;;;16.52;8.10;;;;;;;7.45;88.70;99506.78;4995058;28;20937;-81
2022/11/26 09:16:56;;;;;;;14.05;8.05;;;;;;;7.33;88.80;99502.75;5001188;28;20430;-81
2022/11/26 09:19:23;;;;;;;12.82;7.07;;;;;;;7.35;88.95;99506.00;4998361;28;20033;-82
2022/11/26 09:21:49;;;;;;;14.57;7.57;;;;;;;7.41;88.29;99502.81;5001248;28;20044;-81
2022/11/26 09:24:16;;;;;;;12.40;6.45;;;;;;;7.49;87.81;99510.75;5003700;28;20038;-81
2022/11/26 09:26:43;;;;;;;11.80;6.60;;;;;;;7.36;86.81;99511.06;5000496;28;20046;-82
2022/11/26 09:29:13;;;;;;;14.18;7.07;;;;;;;7.46;88.58;99505.81;4999796;28;20040;-81
2022/11/26 09:31:39;;;;;;;12.52;6.40;;;;;;;7.59;88.58;99518.53;4999060;28;20042;-82
2022/11/26 09:34:05;;;;;;;15.43;6.75;;;;;;;7.59;87.16;99518.53;5002995;28;20026;-81
2022/11/26 09:36:31;;;;;;;13.65;7.53;;;;;;;7.62;87.69;99516.47;4997256;28;20034;-81
2022/11/26 09:38:58;;;;;;;17.55;8.05;;;;;;;7.58;87.97;99522.94;4997675;28;20039;-81
2022/11/26 09:42:04;;;;;;;14.60;7.18;;;;;;;7.39;88.03;99515.22;5000488;28;20101;-81
2022/11/26 09:44:45;;;;;;;16.70;7.68;;;;;;;7.34;87.86;99510.41;4992882;28;20084;-81
2022/11/26 09:47:27;;;;;;;12.25;7.38;;;;;;;7.40;88.11;99509.00;5002281;28;20030;-81
2022/11/26 09:50:13;;;;;;;17.33;7.50;;;;;;;7.43;88.05;99513.94;4996879;28;20035;-81
2022/11/26 09:53:24;;;;;;;14.88;7.93;;;;;;;7.40;87.67;99509.00;4994121;28;20034;-81
2022/11/26 09:55:54;;;;;;;15.05;7.90;;;;;;;7.49;88.38;99515.97;4977590;28;20124;-81
2022/11/26 09:58:47;;;;;;;12.48;7.07;;;;;;;7.61;88.41;99512.19;4979358;28;20643;-81
2022/11/26 10:01:20;;;;;;;16.67;8.20;;;;;;;7.58;87.38;99507.28;4991985;28;20776;-81
2022/11/26 10:03:46;;;;;;;13.73;8.15;;;;;;;7.53;87.15;99519.94;4999318;28;20030;-81
2022/11/26 10:06:53;;;;;;;17.02;7.80;;;;;;;7.55;86.88;99507.53;4999176;28;20396;-81
2022/11/26 10:09:55;;;;;;;15.40;7.25;;;;;;;7.45;87.54;99510.22;4999668;28;20037;-81
2022/11/26 10:12:52;;;;;;;14.85;7.57;;;;;;;7.47;88.20;99517.91;5003807;28;20100;-81
2022/11/26 10:16:02;;;;;;;21.60;8.90;;;;;;;7.47;87.37;99512.69;5004150;28;20030;-81
2022/11/26 10:18:45;;;;;;;13.05;8.25;;;;;;;7.52;88.51;99507.84;4994783;28;20042;-81
2022/11/26 10:21:22;;;;;;;14.18;8.35;;;;;;;7.44;88.03;99515.59;5007162;28;20069;-82
2022/11/26 10:23:59;;;;;;;17.40;8.27;;;;;;;7.39;88.15;99523.03;5005700;28;20065;-81
2022/11/26 10:26:38;;;;;;;16.40;7.88;;;;;;;7.42;88.06;99510.50;5005534;28;20038;-81
2022/11/26 10:29:31;;;;;;;14.85;7.65;;;;;;;7.45;87.92;99514.63;5001261;28;20038;-81
2022/11/26 10:32:09;;;;;;;14.27;7.35;;;;;;;7.52;87.54;99518.31;5005453;28;20053;-81
2022/11/26 10:34:51;;;;;;;16.10;7.53;;;;;;;7.52;86.94;99520.91;5003193;28;20133;-81
2022/11/26 10:37:22;;;;;;;17.08;8.45;;;;;;;7.46;87.00;99516.28;5003786;28;20036;-81
2022/11/26 10:39:52;;;;;;;15.93;8.63;;;;;;;7.46;86.97;99516.28;5006564;28;20100;-81
2022/11/26 10:42:21;;;;;;;14.68;8.02;;;;;;;7.39;86.64;99517.81;5023062;28;20030;-80
2022/11/26 10:44:53;;;;;;;17.52;8.15;;;;;;;7.35;87.72;99513.84;5000033;28;20111;-81
2022/11/26 10:47:30;;;;;;;15.77;8.02;;;;;;;7.47;87.32;99508.28;5001864;28;20110;-81
2022/11/26 10:50:02;;;;;;;13.50;8.05;;;;;;;7.54;86.57;99518.16;5004014;28;20045;-81
2022/11/26 10:52:32;;;;;;;18.27;7.93;;;;;;;7.61;86.13;99512.19;5004474;28;20042;-81
2022/11/26 10:55:22;;;;;;;16.63;8.10;;;;;;;7.68;86.42;99512.44;5003955;28;20034;-81
2022/11/26 10:57:55;;;;;;;13.57;7.88;;;;;;;7.77;86.29;99517.59;5003352;28;20410;-81
2022/11/26 11:00:35;;;;;;;16.63;8.27;;;;;;;7.59;83.47;99506.31;5004057;28;20034;-81
2022/11/26 11:03:05;;;;;;;14.27;7.05;;;;;;;7.62;83.57;99506.03;5007140;28;20091;-80
2022/11/26 11:05:31;;;;;;;15.60;7.53;;;;;;;7.59;84.09;99508.09;5005554;28;20033;-81
2022/11/26 11:07:57;;;;;;;14.68;6.15;;;;;;;7.46;81.63;99513.66;5002553;28;20603;-81
2022/11/26 11:10:25;;;;;;;14.45;6.75;;;;;;;7.48;82.81;99511.72;5002923;28;20134;-81
2022/11/26 11:13:09;;;;;;;14.38;6.70;;;;;;;7.56;82.80;99517.06;5003146;28;20057;-81
2022/11/26 11:15:37;;;;;;;11.38;6.60;;;;;;;7.57;81.85;99516.06;5002491;28;20549;-81
2022/11/26 11:18:20;;;;;;;12.20;7.05;;;;;;;7.64;81.91;99511.91;5003392;28;20095;-81
2022/11/26 11:21:01;;;;;;;11.15;6.50;;;;;;;7.69;81.66;99509.69;5004087;28;20417;-82
2022/11/26 11:23:34;;;;;;;15.00;7.75;;;;;;;7.82;82.46;99521.56;5003991;28;20034;-81
2022/11/26 11:26:24;;;;;;;14.13;6.75;;;;;;;7.85;81.47;99510.81;5004416;28;20022;-81
2022/11/26 11:28:55;;;;;;;15.68;6.70;;;;;;;7.86;81.72;99515.09;5003312;28;20057;-81
2022/11/26 11:31:23;;;;;;;14.05;6.03;;;;;;;7.86;81.31;99507.25;5002128;28;20073;-81
2022/11/26 11:34:09;;;;;;;14.95;7.30;;;;;;;7.78;81.75;99513.19;5002014;28;20034;-81
2022/11/26 11:36:35;;;;;;;12.80;7.90;;;;;;;7.78;82.54;99502.75;5004557;28;20061;-81
2022/11/26 11:39:03;;;;;;;13.15;6.95;;;;;;;7.88;82.31;99508.75;5005154;28;20040;-81
2022/11/26 11:41:43;;;;;;;13.02;6.78;;;;;;;7.86;81.38;99505.47;5005442;28;20116;-81
2022/11/26 11:44:08;;;;;;;14.27;6.63;;;;;;;7.79;80.58;99510.44;5003968;28;20033;-81
2022/11/26 11:47:07;;;;;;;15.30;6.43;;;;;;;7.75;81.18;99506.50;5001331;28;20162;-81
2022/11/26 11:49:54;;;;;;;19.38;7.68;;;;;;;7.73;81.43;99511.00;5003725;28;20037;-81
2022/11/26 11:52:29;;;;;;;13.25;6.90;;;;;;;7.82;80.27;99513.75;4999585;28;20099;-81